Calvin, Oklahoma
Current Conditions -  °F | °C
As of 5:55 AM on Sunday 21 Dec 2014 (Local Time) from KADH Reporting Station
Haze Haze  
Wind Chill:   Ceiling: 900
Heat Index:   Visibility: 4mi
Dew Point:   Wind: 6mph
Humidity: 100%   Direction: 150°SSE
Pressure: 30.08"   Gusts: NA
Location:  34.97°N, 96.25°W
Report Text: KADH 211155Z AUTO 15005KT 4SM BR SCT002 BKN009 OVC027 06/06 A3008 RMK AO2
Loading
Personal Weather Stations






























Interactive Weather Map New forecast layout! Learn more

10-Day Weather Forecast

Advertisements
Track Severe Weather on mobile